Time;durP1;ratioP1;P1;durP2;ratioP2;P2;SDS_P1;SDS_P2;PMS_P1;PMS_P2;Temp;Humidity;BMP_temperature;BMP_pressure;BME280_temperature;BME280_humidity;BME280_pressure;Samples;Min_cycle;Max_cycle;Signal;HPM_P1;HPM_P2
2022/05/29 00:02:03;;;;;;;8.23;1.92;;;10.50;99.90;;;;;;5095298;28;20173;-50
2022/05/29 00:04:28;;;;;;;4.40;1.30;;;10.50;99.90;;;;;;5095454;28;20197;-46
2022/05/29 00:06:56;;;;;;;4.65;2.00;;;10.50;99.90;;;;;;5095114;28;20226;-46
2022/05/29 00:09:35;;;;;;;2.72;1.55;;;10.60;99.90;;;;;;5095141;28;20248;-46
2022/05/29 00:12:02;;;;;;;6.72;1.83;;;10.60;99.90;;;;;;5095124;28;20227;-48
2022/05/29 00:14:29;;;;;;;5.78;1.80;;;10.50;99.90;;;;;;5095219;28;20173;-46
2022/05/29 00:16:55;;;;;;;4.00;1.63;;;10.50;99.90;;;;;;5094966;28;20161;-47
2022/05/29 00:19:20;;;;;;;7.45;2.20;;;10.40;99.90;;;;;;5095191;28;20652;-46
2022/05/29 00:21:46;;;;;;;2.10;1.33;;;10.30;99.90;;;;;;5094683;28;20189;-46
2022/05/29 00:24:14;;;;;;;3.58;1.30;;;10.40;99.90;;;;;;5093884;28;20243;-46
2022/05/29 00:26:39;;;;;;;4.57;1.90;;;10.40;99.90;;;;;;5095046;28;20161;-47
2022/05/29 00:29:05;;;;;;;6.60;2.00;;;10.40;99.90;;;;;;5094711;28;20226;-46
2022/05/29 00:31:30;;;;;;;6.25;1.80;;;10.40;99.90;;;;;;5094916;28;20180;-46
2022/05/29 00:33:56;;;;;;;6.57;1.60;;;10.40;99.90;;;;;;5095004;28;20643;-46
2022/05/29 00:36:22;;;;;;;8.50;1.92;;;10.40;99.90;;;;;;5094598;28;20168;-47
2022/05/29 00:38:48;;;;;;;6.03;1.67;;;10.50;99.90;;;;;;5094799;28;20509;-46
2022/05/29 00:41:22;;;;;;;4.15;1.60;;;10.50;99.90;;;;;;5094724;28;20256;-46
2022/05/29 00:44:10;;;;;;;2.70;1.40;;;10.50;99.90;;;;;;5094315;28;20228;-48
2022/05/29 00:46:36;;;;;;;4.28;1.67;;;10.50;99.90;;;;;;5094418;28;20198;-46
2022/05/29 00:49:09;;;;;;;5.25;2.03;;;10.50;99.90;;;;;;5094356;28;20168;-46
2022/05/29 00:51:37;;;;;;;4.70;1.65;;;10.50;99.90;;;;;;5094216;28;20750;-47
2022/05/29 00:54:05;;;;;;;4.57;1.85;;;10.50;99.90;;;;;;5094225;28;20638;-49
2022/05/29 00:56:33;;;;;;;6.85;1.85;;;10.50;99.90;;;;;;5094662;28;20169;-47
2022/05/29 00:59:00;;;;;;;4.45;1.73;;;10.50;99.90;;;;;;5094499;28;20174;-50
2022/05/29 01:01:27;;;;;;;5.50;1.92;;;10.50;99.90;;;;;;5094149;28;20634;-49
2022/05/29 01:03:54;;;;;;;5.05;2.00;;;10.40;99.90;;;;;;5094060;28;20236;-52
2022/05/29 01:06:20;;;;;;;4.55;1.75;;;10.50;99.90;;;;;;5094052;28;20193;-50
2022/05/29 01:08:46;;;;;;;6.75;1.90;;;10.50;99.90;;;;;;5094222;28;20180;-50
2022/05/29 01:11:36;;;;;;;6.93;1.90;;;10.50;99.90;;;;;;5094009;28;20260;-47
2022/05/29 01:14:36;;;;;;;9.18;1.95;;;10.40;99.90;;;;;;5093935;28;20162;-49
2022/05/29 01:17:28;;;;;;;5.28;1.92;;;10.40;99.90;;;;;;5093812;28;20685;-51
2022/05/29 01:20:12;;;;;;;7.00;2.00;;;10.30;99.90;;;;;;5093742;28;20193;-50
2022/05/29 01:22:46;;;;;;;3.55;1.85;;;10.30;99.90;;;;;;5093629;28;20180;-47
2022/05/29 01:25:28;;;;;;;5.32;1.67;;;10.20;99.90;;;;;;5093642;28;20521;-51
2022/05/29 01:28:31;;;;;;;4.43;1.52;;;10.20;99.90;;;;;;5093610;28;20157;-50
2022/05/29 01:31:00;;;;;;;5.88;1.85;;;10.20;99.90;;;;;;5093899;28;20221;-51
2022/05/29 01:33:40;;;;;;;6.82;1.95;;;10.10;99.90;;;;;;5093288;28;20166;-51
2022/05/29 01:36:18;;;;;;;11.60;2.30;;;10.10;99.90;;;;;;5093532;28;20166;-50
2022/05/29 01:38:53;;;;;;;5.97;1.95;;;10.20;99.90;;;;;;5093382;28;20211;-51
2022/05/29 01:41:35;;;;;;;7.80;1.75;;;10.10;99.90;;;;;;5093674;28;20565;-51
2022/05/29 01:44:18;;;;;;;3.55;1.67;;;10.10;99.90;;;;;;5093304;28;20590;-50
2022/05/29 01:46:48;;;;;;;7.07;2.13;;;10.10;99.90;;;;;;5093237;28;20161;-50
2022/05/29 01:49:26;;;;;;;6.07;1.90;;;10.20;99.90;;;;;;5093155;28;20165;-49
2022/05/29 01:51:57;;;;;;;6.03;2.13;;;10.10;99.90;;;;;;5093052;28;20349;-51
2022/05/29 01:54:32;;;;;;;10.63;1.75;;;10.00;99.90;;;;;;5093145;28;20166;-48
2022/05/29 01:57:05;;;;;;;7.88;2.08;;;10.00;99.90;;;;;;5093647;28;20512;-48
2022/05/29 01:59:41;;;;;;;7.65;2.50;;;10.00;99.90;;;;;;5093080;28;20681;-47
2022/05/29 02:02:09;;;;;;;6.97;2.22;;;10.00;99.90;;;;;;5093021;28;20653;-47
2022/05/29 02:04:43;;;;;;;5.35;2.13;;;9.90;99.90;;;;;;5092839;28;20215;-47
2022/05/29 02:10:09;;;;;;;4.88;1.80;;;9.90;99.90;;;;;;5093451;28;20171;-48
2022/05/29 02:12:40;;;;;;;4.18;1.67;;;9.80;99.90;;;;;;5092740;28;20163;-48
2022/05/29 02:15:10;;;;;;;4.80;2.03;;;9.90;99.90;;;;;;5092605;28;20176;-49
2022/05/29 02:17:42;;;;;;;3.50;1.63;;;9.80;99.90;;;;;;5092774;28;20166;-48
2022/05/29 02:20:16;;;;;;;7.05;3.17;;;9.80;99.90;;;;;;5092911;28;20169;-48
2022/05/29 02:22:45;;;;;;;13.45;2.30;;;9.70;99.90;;;;;;5092427;28;20161;-47
2022/05/29 02:25:17;;;;;;;2.88;1.90;;;9.80;99.90;;;;;;5092550;28;20208;-47
2022/05/29 02:27:54;;;;;;;4.55;2.08;;;9.80;99.90;;;;;;5092580;28;20215;-46
2022/05/29 02:30:25;;;;;;;8.75;1.98;;;9.60;99.90;;;;;;5092523;28;20196;-47
2022/05/29 02:33:11;;;;;;;11.15;2.08;;;9.60;99.90;;;;;;5092425;28;20157;-48
2022/05/29 02:36:22;;;;;;;4.30;1.70;;;9.50;99.90;;;;;;5092308;28;20215;-46
2022/05/29 02:39:05;;;;;;;3.88;1.88;;;9.50;99.90;;;;;;5092333;28;20165;-49
2022/05/29 02:41:56;;;;;;;3.10;2.00;;;9.50;99.90;;;;;;5092380;28;20271;-46
2022/05/29 02:44:40;;;;;;;5.47;2.00;;;9.50;99.90;;;;;;5092250;28;20680;-48
2022/05/29 02:47:38;;;;;;;6.70;2.15;;;9.60;99.90;;;;;;5091633;28;20169;-51
2022/05/29 02:50:18;;;;;;;7.05;2.08;;;9.60;99.90;;;;;;5092254;28;20157;-52
2022/05/29 02:52:44;;;;;;;8.85;2.17;;;9.60;99.90;;;;;;5092123;28;20271;-52
2022/05/29 02:55:11;;;;;;;5.82;2.38;;;9.60;99.90;;;;;;5092442;28;20637;-52
2022/05/29 02:57:36;;;;;;;6.82;1.92;;;9.60;99.90;;;;;;5092153;28;20196;-51
2022/05/29 03:00:11;;;;;;;6.32;2.33;;;9.70;99.90;;;;;;5092140;28;20161;-51
2022/05/29 03:02:44;;;;;;;8.48;2.17;;;9.50;99.90;;;;;;5092226;28;20169;-46
2022/05/29 03:05:43;;;;;;;5.10;2.15;;;9.50;99.90;;;;;;5092088;28;20742;-50
2022/05/29 03:08:21;;;;;;;8.90;2.17;;;9.60;99.90;;;;;;5092026;28;20222;-52
2022/05/29 03:10:59;;;;;;;9.77;2.70;;;9.60;99.90;;;;;;5091952;28;20173;-49
2022/05/29 03:13:37;;;;;;;3.97;2.08;;;9.60;99.90;;;;;;5092181;28;20172;-47
2022/05/29 03:16:16;;;;;;;9.50;2.83;;;9.60;99.90;;;;;;5091886;28;20195;-49
2022/05/29 03:18:46;;;;;;;7.28;1.88;;;9.60;99.90;;;;;;5091949;28;20527;-51
2022/05/29 03:21:34;;;;;;;9.00;2.30;;;9.70;99.90;;;;;;5091867;28;20173;-47
2022/05/29 03:24:24;;;;;;;3.85;1.90;;;9.60;99.90;;;;;;5092097;28;20212;-50
2022/05/29 03:27:15;;;;;;;8.02;2.22;;;9.60;99.90;;;;;;5091753;28;20622;-50
2022/05/29 03:29:48;;;;;;;5.88;2.42;;;9.60;99.90;;;;;;5092058;28;20318;-47
2022/05/29 03:32:15;;;;;;;10.00;2.50;;;9.50;99.90;;;;;;5091828;28;20185;-51
2022/05/29 03:34:40;;;;;;;5.10;2.70;;;9.50;99.90;;;;;;5092082;28;20173;-50
2022/05/29 03:37:06;;;;;;;8.32;2.50;;;9.50;99.90;;;;;;5091970;28;20295;-48
2022/05/29 03:39:33;;;;;;;5.78;2.72;;;9.50;99.90;;;;;;5073586;28;20191;-50
2022/05/29 03:41:59;;;;;;;5.18;2.60;;;9.50;99.90;;;;;;5092029;28;20630;-48
2022/05/29 03:44:25;;;;;;;7.90;2.60;;;9.40;99.90;;;;;;5091545;28;20211;-48
2022/05/29 03:46:51;;;;;;;6.00;2.38;;;9.50;99.90;;;;;;5091943;28;20176;-49
2022/05/29 03:49:19;;;;;;;6.50;2.60;;;9.50;99.90;;;;;;5091900;28;20211;-49
2022/05/29 03:51:45;;;;;;;5.60;2.67;;;9.50;99.90;;;;;;5091427;28;20743;-49
2022/05/29 03:54:11;;;;;;;12.23;2.78;;;9.60;99.90;;;;;;5091626;28;20178;-50
2022/05/29 03:56:37;;;;;;;6.57;2.78;;;9.50;99.90;;;;;;5092006;28;20662;-50
2022/05/29 03:59:03;;;;;;;5.18;2.50;;;9.50;99.90;;;;;;5095617;28;20181;-50
2022/05/29 04:01:30;;;;;;;6.30;2.58;;;9.50;99.90;;;;;;5096033;28;20509;-46
2022/05/29 04:03:56;;;;;;;7.28;2.65;;;9.40;99.90;;;;;;5095270;28;20205;-49
2022/05/29 04:06:22;;;;;;;5.00;2.80;;;9.50;99.90;;;;;;5095295;28;20244;-51
2022/05/29 04:14:17;;;;;;;5.80;2.65;;;9.70;99.90;;;;;;5095294;28;20261;-48
2022/05/29 04:16:43;;;;;;;11.95;3.15;;;9.80;99.90;;;;;;5095005;28;20244;-46
2022/05/29 04:19:08;;;;;;;8.32;3.08;;;9.80;99.90;;;;;;5095019;28;20573;-46
2022/05/29 04:21:34;;;;;;;7.90;3.00;;;10.00;99.90;;;;;;5095160;28;20169;-46
2022/05/29 04:23:59;;;;;;;5.88;2.80;;;10.10;99.90;;;;;;5095045;28;20244;-46
2022/05/29 04:26:25;;;;;;;4.32;2.63;;;10.10;99.90;;;;;;5094750;28;20197;-46
2022/05/29 04:28:50;;;;;;;6.18;2.70;;;10.20;99.90;;;;;;5094815;28;20244;-47
2022/05/29 04:31:16;;;;;;;6.55;2.72;;;10.20;99.90;;;;;;5094774;28;20180;-46
2022/05/29 04:33:41;;;;;;;9.35;3.40;;;10.30;99.90;;;;;;5094679;28;20556;-46
2022/05/29 04:36:07;;;;;;;7.47;2.97;;;10.20;99.90;;;;;;5094819;28;20186;-46
2022/05/29 04:38:33;;;;;;;7.22;3.30;;;10.30;99.90;;;;;;5094651;28;20169;-46
2022/05/29 04:41:03;;;;;;;8.85;2.78;;;10.30;99.90;;;;;;5094917;28;20169;-46
2022/05/29 04:43:29;;;;;;;7.60;2.97;;;10.40;99.90;;;;;;5094784;28;20646;-47
2022/05/29 04:45:56;;;;;;;4.90;2.70;;;10.40;99.90;;;;;;5094449;28;20180;-47
2022/05/29 04:48:22;;;;;;;6.95;2.70;;;10.40;99.90;;;;;;5094410;28;20164;-45
2022/05/29 04:50:54;;;;;;;4.95;2.70;;;10.50;99.90;;;;;;5094444;28;20613;-47
2022/05/29 04:53:19;;;;;;;7.28;3.10;;;10.60;99.90;;;;;;5094205;28;20217;-46
2022/05/29 04:55:45;;;;;;;7.32;2.83;;;10.50;99.90;;;;;;5094242;28;20240;-46
2022/05/29 04:58:10;;;;;;;5.40;3.20;;;10.50;99.90;;;;;;5094315;28;20184;-46
2022/05/29 05:00:36;;;;;;;7.20;2.50;;;10.60;99.90;;;;;;5094198;28;20158;-46
2022/05/29 05:03:02;;;;;;;8.20;3.00;;;10.60;99.90;;;;;;5094072;28;20235;-46
2022/05/29 05:05:29;;;;;;;6.28;3.50;;;10.70;99.90;;;;;;5094399;28;20169;-47
2022/05/29 05:07:54;;;;;;;9.18;2.97;;;10.60;99.90;;;;;;5094340;28;20162;-47
2022/05/29 05:10:20;;;;;;;6.25;3.10;;;10.60;99.90;;;;;;5093416;28;20542;-47
2022/05/29 05:12:46;;;;;;;7.72;3.17;;;10.60;99.90;;;;;;5093927;28;20165;-48
2022/05/29 05:15:15;;;;;;;9.57;3.40;;;10.60;99.90;;;;;;5093958;28;20177;-47
2022/05/29 05:17:41;;;;;;;6.35;2.80;;;10.60;99.90;;;;;;5093834;28;20244;-47
2022/05/29 05:20:07;;;;;;;12.45;3.15;;;10.50;99.90;;;;;;5093911;28;20169;-46
2022/05/29 05:22:33;;;;;;;11.85;3.30;;;10.60;99.90;;;;;;5093819;28;20158;-47
2022/05/29 05:24:59;;;;;;;7.03;3.38;;;10.70;99.90;;;;;;5093987;28;20759;-46
2022/05/29 05:27:25;;;;;;;5.47;2.97;;;10.80;99.90;;;;;;5093708;28;20162;-50
2022/05/29 05:29:50;;;;;;;9.18;3.20;;;11.00;99.90;;;;;;5093616;28;20165;-49
2022/05/29 05:32:16;;;;;;;5.15;2.80;;;11.20;99.90;;;;;;5093560;28;20173;-49
2022/05/29 05:34:42;;;;;;;7.60;3.20;;;11.40;99.90;;;;;;5093541;28;20231;-51
2022/05/29 05:37:08;;;;;;;9.98;3.38;;;11.30;99.90;;;;;;5093480;28;20173;-49
2022/05/29 05:39:34;;;;;;;7.57;3.08;;;11.30;99.90;;;;;;5093503;28;20580;-50
2022/05/29 05:42:00;;;;;;;6.60;3.10;;;11.30;99.90;;;;;;5093698;28;20168;-50
2022/05/29 05:44:26;;;;;;;10.63;3.08;;;11.30;99.90;;;;;;5093609;28;20645;-49
2022/05/29 05:46:56;;;;;;;4.05;2.55;;;11.30;99.90;;;;;;5093332;28;20180;-49
2022/05/29 05:49:23;;;;;;;4.85;2.88;;;11.30;99.90;;;;;;5093535;28;20184;-50
2022/05/29 05:51:50;;;;;;;7.47;2.88;;;11.20;99.90;;;;;;5093063;28;20213;-49
2022/05/29 05:54:16;;;;;;;8.40;3.15;;;11.30;99.90;;;;;;5093365;28;20177;-50
2022/05/29 05:56:44;;;;;;;12.05;3.45;;;11.30;99.90;;;;;;5093160;28;20256;-50
2022/05/29 05:59:10;;;;;;;8.10;3.05;;;11.30;99.90;;;;;;5093302;28;20170;-51
2022/05/29 06:01:36;;;;;;;5.65;2.70;;;11.30;99.90;;;;;;5092993;28;20158;-51
2022/05/29 06:04:01;;;;;;;7.20;3.00;;;11.40;99.90;;;;;;5092885;28;20262;-49
2022/05/29 06:06:27;;;;;;;8.00;3.03;;;11.50;99.90;;;;;;5093195;28;20164;-50
2022/05/29 06:08:52;;;;;;;6.80;3.08;;;11.40;99.90;;;;;;5093101;28;20177;-51
2022/05/29 06:11:18;;;;;;;7.85;2.67;;;11.40;99.90;;;;;;5092825;28;20157;-51
2022/05/29 06:13:43;;;;;;;5.25;2.78;;;11.50;99.90;;;;;;5092812;28;20169;-51
2022/05/29 06:16:09;;;;;;;8.85;3.40;;;11.50;99.90;;;;;;5092769;28;20169;-52
2022/05/29 06:18:35;;;;;;;9.43;3.03;;;11.60;99.90;;;;;;5092652;28;20169;-50
2022/05/29 06:21:04;;;;;;;8.35;3.22;;;11.60;99.90;;;;;;5091795;28;20171;-48
2022/05/29 06:23:31;;;;;;;10.88;3.35;;;11.60;99.90;;;;;;5093159;28;20204;-51
2022/05/29 06:26:04;;;;;;;4.70;2.90;;;11.60;99.90;;;;;;5092986;28;20200;-49
2022/05/29 06:28:30;;;;;;;6.43;3.20;;;11.90;99.90;;;;;;5092940;28;20163;-50
2022/05/29 06:30:56;;;;;;;7.43;3.30;;;12.10;99.90;;;;;;5092866;28;20180;-49
2022/05/29 06:33:22;;;;;;;5.65;3.20;;;12.40;99.90;;;;;;5092439;28;20169;-51
2022/05/29 06:35:47;;;;;;;6.70;2.75;;;12.30;99.90;;;;;;5092441;28;20206;-51
2022/05/29 06:38:13;;;;;;;4.90;2.55;;;12.70;99.90;;;;;;5092402;28;20177;-50
2022/05/29 06:40:42;;;;;;;4.38;2.30;;;12.80;99.90;;;;;;5092528;28;20162;-51
2022/05/29 06:43:09;;;;;;;3.85;2.78;;;12.90;99.90;;;;;;5092178;28;20564;-49
2022/05/29 06:45:35;;;;;;;4.97;3.03;;;13.10;99.90;;;;;;5092685;28;20177;-51
2022/05/29 06:48:00;;;;;;;8.63;2.78;;;13.10;99.90;;;;;;5092376;28;20621;-46
2022/05/29 06:50:26;;;;;;;4.88;2.80;;;12.80;99.90;;;;;;5092492;28;20225;-51
2022/05/29 06:52:52;;;;;;;6.43;2.42;;;12.60;99.90;;;;;;5092037;28;20209;-50
2022/05/29 06:55:17;;;;;;;6.22;2.40;;;12.70;99.90;;;;;;5092125;28;20574;-52
2022/05/29 06:57:46;;;;;;;6.63;2.47;;;12.70;99.90;;;;;;5092404;28;20169;-51
2022/05/29 07:08:49;;;;;;;6.65;2.95;;;12.40;99.90;;;;;;5029917;28;20250;-51
2022/05/29 07:11:19;;;;;;;10.48;3.80;;;12.20;99.90;;;;;;5029838;28;20782;-52
2022/05/29 07:13:45;;;;;;;5.00;2.70;;;12.10;99.90;;;;;;5060330;28;20215;-51
2022/05/29 07:16:10;;;;;;;7.18;2.53;;;12.10;99.90;;;;;;5091940;28;20173;-52
2022/05/29 07:18:36;;;;;;;4.97;2.45;;;12.30;99.90;;;;;;5092050;28;20161;-52
2022/05/29 07:21:04;;;;;;;6.22;2.22;;;12.30;99.90;;;;;;5092078;28;20184;-51
2022/05/29 07:23:30;;;;;;;5.40;2.60;;;12.30;99.90;;;;;;5092346;28;20242;-52
2022/05/29 07:25:55;;;;;;;8.48;2.22;;;12.30;99.90;;;;;;5092099;28;20222;-51
2022/05/29 07:28:22;;;;;;;4.88;1.70;;;12.20;99.90;;;;;;5091818;28;20526;-52
2022/05/29 07:30:49;;;;;;;3.90;2.00;;;12.20;99.90;;;;;;5091788;28;20198;-52
2022/05/29 07:33:14;;;;;;;5.07;2.13;;;12.20;99.90;;;;;;5094891;28;20189;-52
2022/05/29 07:35:40;;;;;;;4.32;1.90;;;12.10;99.90;;;;;;5095810;28;20642;-51
2022/05/29 07:38:05;;;;;;;3.47;1.83;;;12.10;99.90;;;;;;5095948;28;20176;-52
2022/05/29 07:40:31;;;;;;;6.07;2.15;;;12.10;99.90;;;;;;5095502;28;20165;-51
2022/05/29 07:45:41;;;;;;;3.95;2.20;;;12.40;99.90;;;;;;5095397;28;20230;-52
2022/05/29 07:48:07;;;;;;;4.63;2.20;;;12.60;99.90;;;;;;5095884;28;20169;-51
2022/05/29 07:50:33;;;;;;;7.35;2.50;;;12.60;99.90;;;;;;5077135;28;20173;-51
2022/05/29 07:52:59;;;;;;;3.30;2.28;;;12.60;99.90;;;;;;5095609;28;20295;-52
2022/05/29 07:55:25;;;;;;;4.07;2.50;;;12.60;99.90;;;;;;5095669;28;20188;-51
2022/05/29 07:57:51;;;;;;;7.38;2.40;;;12.60;99.90;;;;;;5095696;28;20200;-51
2022/05/29 08:00:19;;;;;;;7.05;2.00;;;12.70;99.90;;;;;;5077268;28;20177;-49
2022/05/29 08:02:45;;;;;;;4.68;1.92;;;12.80;99.90;;;;;;5095605;28;20173;-50
2022/05/29 08:05:13;;;;;;;2.58;2.00;;;12.80;99.90;;;;;;5095717;28;20208;-51
2022/05/29 08:07:39;;;;;;;3.40;1.70;;;12.80;99.90;;;;;;5095123;28;20229;-50
2022/05/29 08:10:06;;;;;;;3.97;2.15;;;13.00;99.90;;;;;;5095249;28;20250;-52
2022/05/29 08:12:32;;;;;;;6.38;2.05;;;13.20;99.90;;;;;;5078586;28;20551;-52
2022/05/29 08:14:58;;;;;;;6.78;2.35;;;13.20;99.90;;;;;;5095596;28;20165;-52
2022/05/29 08:17:23;;;;;;;9.20;1.90;;;13.30;99.90;;;;;;5095214;28;20649;-52
2022/05/29 08:19:49;;;;;;;3.25;2.33;;;13.20;99.90;;;;;;5095552;28;20170;-52
2022/05/29 08:22:14;;;;;;;4.45;2.15;;;13.50;99.90;;;;;;5094793;28;20189;-51
2022/05/29 08:30:38;;;;;;;4.03;1.70;;;14.00;99.90;;;;;;5091103;28;20180;-48
2022/05/29 08:33:06;;;;;;;4.82;2.10;;;14.30;99.90;;;;;;5095042;28;20165;-52
2022/05/29 08:35:33;;;;;;;6.93;2.95;;;14.50;99.90;;;;;;5095167;28;20188;-51
2022/05/29 08:38:00;;;;;;;3.92;2.08;;;14.60;99.90;;;;;;5095424;28;20168;-49
2022/05/29 08:40:28;;;;;;;5.72;2.00;;;14.60;99.90;;;;;;5094936;28;20548;-52
2022/05/29 08:42:54;;;;;;;8.00;2.42;;;14.30;99.90;;;;;;5076021;28;20173;-52
2022/05/29 08:45:20;;;;;;;5.30;2.28;;;14.20;99.90;;;;;;5093459;28;20176;-49
2022/05/29 08:47:46;;;;;;;3.08;2.05;;;14.70;99.90;;;;;;5094782;28;20165;-51
2022/05/29 08:50:23;;;;;;;5.18;2.28;;;16.60;99.90;;;;;;5094605;28;20181;-48
2022/05/29 08:53:04;;;;;;;5.25;2.38;;;15.20;99.90;;;;;;5093969;28;20716;-50
2022/05/29 08:55:51;;;;;;;6.07;2.53;;;15.40;99.90;;;;;;5094335;28;20184;-51
2022/05/29 08:58:35;;;;;;;5.65;2.58;;;15.20;99.90;;;;;;5094461;28;20169;-50
2022/05/29 09:01:13;;;;;;;7.93;2.25;;;15.40;99.90;;;;;;5093733;28;20169;-51
2022/05/29 09:03:58;;;;;;;4.60;2.55;;;15.80;99.90;;;;;;5094131;28;20230;-51
2022/05/29 09:06:49;;;;;;;11.93;2.83;;;15.50;99.90;;;;;;5094049;28;20231;-52
2022/05/29 09:09:42;;;;;;;4.85;2.50;;;15.20;99.90;;;;;;5076005;28;20169;-51
2022/05/29 09:12:19;;;;;;;6.65;2.60;;;15.00;99.90;;;;;;5093722;28;20197;-49
2022/05/29 09:14:56;;;;;;;3.75;2.05;;;15.30;99.90;;;;;;5093910;28;20181;-47
2022/05/29 09:17:52;;;;;;;5.55;2.28;;;15.30;99.90;;;;;;5094111;28;20223;-49
2022/05/29 09:20:39;;;;;;;9.95;2.50;;;15.70;99.90;;;;;;5077074;28;20255;-48
2022/05/29 09:23:07;;;;;;;4.88;1.83;;;16.00;99.90;;;;;;5093524;28;20169;-49
2022/05/29 09:25:36;;;;;;;7.47;2.17;;;16.70;99.90;;;;;;5093373;28;20176;-51
2022/05/29 09:28:27;;;;;;;4.93;2.13;;;16.30;99.90;;;;;;5093413;28;20185;-50
2022/05/29 09:31:01;;;;;;;7.80;2.40;;;15.70;99.90;;;;;;5093578;28;20653;-47
2022/05/29 09:33:29;;;;;;;6.55;2.00;;;15.60;99.90;;;;;;5093926;28;20625;-49
2022/05/29 09:36:08;;;;;;;8.98;2.75;;;15.20;99.90;;;;;;5093961;28;20192;-49
2022/05/29 09:38:48;;;;;;;5.78;2.15;;;14.90;99.90;;;;;;5093777;28;20157;-50
2022/05/29 09:41:31;;;;;;;4.53;2.50;;;14.40;99.90;;;;;;5093467;28;20278;-49
2022/05/29 09:44:05;;;;;;;8.73;2.55;;;13.90;99.90;;;;;;5093201;28;20254;-49
2022/05/29 09:46:37;;;;;;;10.82;4.93;;;13.90;99.90;;;;;;5093292;28;20210;-48
2022/05/29 09:51:55;;;;;;;5.25;1.83;;;14.20;99.90;;;;;;5093211;28;20212;-50
2022/05/29 09:54:34;;;;;;;8.00;2.67;;;14.20;99.90;;;;;;5092770;28;20197;-47
2022/05/29 09:57:24;;;;;;;5.60;2.15;;;14.10;99.90;;;;;;5092611;28;20161;-51
2022/05/29 10:00:07;;;;;;;7.13;2.00;;;14.00;99.90;;;;;;5092552;28;20512;-51
2022/05/29 10:02:41;;;;;;;3.78;1.35;;;13.90;99.90;;;;;;5076405;28;20272;-51
2022/05/29 10:05:28;;;;;;;2.08;1.10;;;13.80;99.90;;;;;;5092511;28;20207;-51
2022/05/29 10:07:58;;;;;;;4.55;1.85;;;13.70;99.90;;;;;;5092357;28;20229;-51
2022/05/29 10:10:29;;;;;;;2.05;1.30;;;13.60;99.90;;;;;;5092354;28;20173;-51
2022/05/29 10:12:57;;;;;;;4.70;1.83;;;13.80;99.90;;;;;;5093086;28;20514;-51
2022/05/29 10:15:26;;;;;;;2.08;1.50;;;13.70;99.90;;;;;;5092579;28;20591;-51
2022/05/29 10:17:53;;;;;;;5.00;1.88;;;14.10;99.90;;;;;;5092317;28;20165;-51
2022/05/29 10:20:33;;;;;;;5.75;2.20;;;14.60;99.90;;;;;;5092225;28;20230;-52
2022/05/29 10:23:08;;;;;;;2.95;1.73;;;14.70;99.90;;;;;;5092778;28;20164;-50
2022/05/29 10:25:38;;;;;;;4.25;1.90;;;15.10;99.90;;;;;;5092340;28;20227;-51
2022/05/29 10:28:15;;;;;;;4.13;2.60;;;15.30;99.90;;;;;;5092460;28;20158;-51
2022/05/29 10:30:44;;;;;;;5.35;3.75;;;15.40;99.90;;;;;;5092159;28;20157;-51
2022/05/29 10:33:17;;;;;;;6.72;3.05;;;15.40;99.90;;;;;;5073928;28;20169;-51
2022/05/29 10:35:43;;;;;;;5.57;1.73;;;15.40;99.90;;;;;;5092036;28;20195;-51
2022/05/29 10:38:18;;;;;;;3.30;2.38;;;15.00;99.90;;;;;;5092099;28;20622;-50
2022/05/29 10:40:46;;;;;;;5.95;1.88;;;14.70;99.90;;;;;;5091860;28;20191;-51
2022/05/29 10:43:32;;;;;;;8.43;5.38;;;14.50;99.90;;;;;;5091827;28;20177;-50
2022/05/29 10:46:10;;;;;;;7.45;3.10;;;14.30;99.90;;;;;;5092379;28;20643;-51
2022/05/29 10:48:51;;;;;;;2.10;1.42;;;14.40;99.90;;;;;;5092172;28;20176;-52
2022/05/29 10:51:54;;;;;;;1.17;1.08;;;14.00;99.90;;;;;;5092092;28;20169;-51
2022/05/29 10:54:49;;;;;;;0.77;0.73;;;13.80;99.90;;;;;;5092139;28;20175;-51
2022/05/29 10:57:48;;;;;;;2.15;1.52;;;14.00;99.90;;;;;;5092071;28;20248;-50
2022/05/29 11:00:43;;;;;;;4.63;2.03;;;14.40;99.90;;;;;;5092043;28;20164;-50
2022/05/29 11:03:28;;;;;;;2.80;2.05;;;14.70;99.90;;;;;;5080817;28;20246;-51
2022/05/29 11:06:20;;;;;;;2.47;1.45;;;14.90;99.90;;;;;;5092022;28;20162;-52
2022/05/29 11:09:07;;;;;;;2.28;1.30;;;15.20;99.90;;;;;;5091962;28;20165;-51
2022/05/29 11:11:39;;;;;;;2.83;1.40;;;15.10;99.90;;;;;;5092004;28;20252;-49
2022/05/29 11:14:39;;;;;;;1.90;1.15;;;15.10;99.90;;;;;;5091184;28;20165;-50
2022/05/29 11:17:25;;;;;;;3.30;1.30;;;15.20;99.90;;;;;;5091917;28;20522;-50
2022/05/29 11:19:53;;;;;;;3.00;1.42;;;15.10;99.90;;;;;;5073759;28;20600;-49
2022/05/29 11:22:56;;;;;;;4.72;2.03;;;15.20;99.90;;;;;;5091896;28;20189;-50
2022/05/29 11:25:37;;;;;;;4.80;1.80;;;15.30;99.90;;;;;;5019514;28;20188;-48
2022/05/29 11:28:19;;;;;;;4.60;1.90;;;15.40;99.90;;;;;;5091662;28;20573;-50
2022/05/29 11:30:56;;;;;;;4.03;2.28;;;15.40;99.90;;;;;;5091779;28;20161;-51
2022/05/29 11:34:06;;;;;;;4.75;2.45;;;15.40;99.90;;;;;;5091725;28;20169;-49
2022/05/29 11:36:56;;;;;;;4.38;2.00;;;15.30;99.90;;;;;;5009587;28;20172;-50
2022/05/29 11:39:29;;;;;;;2.88;1.80;;;15.40;99.90;;;;;;5009885;28;20179;-48
2022/05/29 11:41:57;;;;;;;4.75;2.22;;;15.10;99.90;;;;;;5068624;28;20178;-50
2022/05/29 11:44:58;;;;;;;3.67;2.28;;;15.20;99.90;;;;;;5091602;28;20209;-46
2022/05/29 11:53:43;;;;;;;5.40;2.17;;;15.90;99.90;;;;;;5092038;28;20235;-52
2022/05/29 11:56:35;;;;;;;5.45;2.20;;;16.20;99.90;;;;;;5091222;28;20170;-51
2022/05/29 11:59:17;;;;;;;3.53;2.60;;;16.00;99.90;;;;;;5091594;28;20197;-49
2022/05/29 12:02:01;;;;;;;8.60;1.75;;;16.10;99.90;;;;;;5091745;28;20518;-52
2022/05/29 12:04:36;;;;;;;4.32;1.90;;;16.50;99.90;;;;;;5091958;28;20291;-49
2022/05/29 12:07:15;;;;;;;2.63;1.75;;;16.50;99.90;;;;;;5091404;28;20647;-49
2022/05/29 12:10:01;;;;;;;2.58;1.20;;;16.40;99.90;;;;;;5091429;28;20176;-51
2022/05/29 12:12:40;;;;;;;3.30;1.58;;;16.50;99.90;;;;;;5091719;28;20161;-51
2022/05/29 12:15:16;;;;;;;4.82;1.60;;;16.50;99.90;;;;;;5091683;28;20252;-51
2022/05/29 12:17:49;;;;;;;3.15;1.60;;;16.80;99.90;;;;;;5091399;28;20200;-51
2022/05/29 12:20:28;;;;;;;4.53;1.80;;;17.10;99.90;;;;;;5094184;28;20657;-51
2022/05/29 12:22:57;;;;;;;3.92;2.13;;;17.10;99.90;;;;;;5094709;28;20626;-50
2022/05/29 12:25:47;;;;;;;2.08;1.35;;;17.10;99.90;;;;;;5095018;28;20200;-52
2022/05/29 12:28:27;;;;;;;2.65;1.30;;;17.40;99.90;;;;;;5094881;28;20498;-51
2022/05/29 12:30:54;;;;;;;2.17;1.30;;;17.00;99.90;;;;;;5094706;28;20161;-52
2022/05/29 12:33:23;;;;;;;1.48;1.13;;;17.00;99.90;;;;;;5094782;28;20162;-51
2022/05/29 12:36:19;;;;;;;2.40;1.00;;;17.20;99.90;;;;;;5095010;28;20226;-52
2022/05/29 12:39:25;;;;;;;1.88;1.23;;;17.20;99.90;;;;;;5079834;28;20169;-50
2022/05/29 12:42:20;;;;;;;2.40;1.23;;;17.10;99.90;;;;;;5094529;28;20229;-50
2022/05/29 12:45:03;;;;;;;1.40;1.10;;;16.90;99.90;;;;;;5094675;28;20254;-48
2022/05/29 12:48:15;;;;;;;3.42;1.27;;;16.80;99.90;;;;;;5076541;28;20622;-49
2022/05/29 12:50:55;;;;;;;3.88;1.33;;;16.80;99.90;;;;;;5094387;28;20259;-51
2022/05/29 12:53:58;;;;;;;1.80;0.80;;;16.90;99.90;;;;;;5094131;28;20599;-46
2022/05/29 12:56:42;;;;;;;0.88;0.80;;;16.50;99.90;;;;;;5094182;28;20191;-50
2022/05/29 12:59:20;;;;;;;1.08;0.90;;;16.80;99.90;;;;;;5094338;28;20175;-52
2022/05/29 13:01:50;;;;;;;1.17;1.05;;;17.20;99.90;;;;;;5076059;28;20169;-50
2022/05/29 13:04:46;;;;;;;2.75;1.05;;;17.00;99.90;;;;;;5094250;28;20580;-48
2022/05/29 13:07:24;;;;;;;1.50;1.00;;;16.90;99.90;;;;;;5094110;28;20169;-47
2022/05/29 13:10:27;;;;;;;1.83;0.90;;;16.70;99.90;;;;;;5093890;28;20645;-48
2022/05/29 13:13:01;;;;;;;3.25;1.48;;;16.60;99.90;;;;;;5090755;28;20181;-46
2022/05/29 13:15:31;;;;;;;2.83;1.20;;;16.60;99.90;;;;;;5094176;28;20199;-49
2022/05/29 13:18:09;;;;;;;1.65;1.20;;;16.50;99.90;;;;;;5094280;28;20195;-47
2022/05/29 13:21:03;;;;;;;1.30;0.90;;;16.00;99.90;;;;;;5093627;28;20530;-49
2022/05/29 13:23:38;;;;;;;1.65;1.00;;;15.70;99.90;;;;;;5093975;28;20646;-50
2022/05/29 13:26:04;;;;;;;0.73;0.73;;;15.70;99.90;;;;;;5092177;28;20181;-48
2022/05/29 13:28:32;;;;;;;0.80;0.77;;;15.70;99.90;;;;;;5093375;28;20207;-49
2022/05/29 13:31:03;;;;;;;0.70;0.70;;;15.60;99.90;;;;;;5092823;28;20174;-48
2022/05/29 13:33:28;;;;;;;0.77;0.68;;;15.90;99.90;;;;;;5093402;28;20166;-47
2022/05/29 13:35:58;;;;;;;0.73;0.73;;;16.20;99.90;;;;;;5093305;28;20664;-46
2022/05/29 13:38:46;;;;;;;0.43;0.43;;;16.40;99.90;;;;;;5075282;28;20189;-46
2022/05/29 13:41:28;;;;;;;0.57;0.57;;;16.60;99.90;;;;;;5093463;28;20601;-49
2022/05/29 13:43:54;;;;;;;0.50;0.50;;;16.60;99.90;;;;;;5093271;28;20649;-49
2022/05/29 13:46:25;;;;;;;0.50;0.50;;;16.70;99.90;;;;;;5093457;28;20165;-49
2022/05/29 13:49:17;;;;;;;0.60;0.60;;;16.60;99.90;;;;;;5093938;28;20168;-51
2022/05/29 13:51:44;;;;;;;0.68;0.47;;;16.60;99.90;;;;;;5093288;28;20216;-50
2022/05/29 13:54:28;;;;;;;1.75;0.85;;;16.70;99.90;;;;;;5093300;28;20195;-51
2022/05/29 13:57:10;;;;;;;0.65;0.63;;;16.60;99.90;;;;;;5093656;28;20534;-49